Thunderstorms From: 15-12-2017 06:00 Until: 16-12-2017 06:00 warning for: Thunderstorms Level: Yellow info button

Although rather usual in this region, locally or potentially dangerous phenomena are expected. (such as local winds, summer thunderstorms, rising streams or high waves) Be aware and pay attention to the latest weather updates, especially if you carry out activities exposed to weather or close to a stream or shoreline. 


Meteo18 Weather Cam more information Meteo18 Weather Cam


warning for Thunderstorms more information blitzortung!


Rain radar more information rain snow radar


Visit our other weather sites:

Template documentation
and downloads

And another site



Weather Underground History page Text

Daily Summary for September 18, 2017 Units:  English    Metric   Both
« Previous Day
Next Day »
Daily Weekly Monthly Yearly Custom
  High: Low: Average:
Temperature: 61.7 °F 43.9 °F 52 °F
Dew Point: 52.3 °F 43.2 °F 47.5 °F
Humidity: 97 % 58 % 86 %
Wind Speed: 10 mph 0 mph 2.1 mph
Wind Gust: 13 mph - -
Wind:- - WSW
Pressure: 30.2 in 30 in -
Precipitation: 0 in    
Historical Graphs
 
 
Tabular Data for September 18, 2017
Time Temperature Dew Point Pressure Wind Wind Speed Wind Gust Humidity Rainfall Rate (Hourly)
00:02 50 °F 48.6 °F 30 in Calm     95 % 0 in
00:07 50 °F 48.6 °F 30 in Calm     95 % 0 in
00:12 49.8 °F 48.4 °F 30 in Calm     95 % 0 in
00:17 49.6 °F 48 °F 30 in Calm     94 % 0 in
00:22 49.5 °F 48 °F 30 in Calm     95 % 0 in
00:32 49.5 °F 48 °F 30 in Calm     95 % 0 in
00:42 49.3 °F 47.8 °F 30 in Calm     95 % 0 in
00:52 49.3 °F 47.8 °F 30.1 in WSW 1 mph 2 mph 95 % 0 in
00:57 49.5 °F 48 °F 30.1 in SW 1 mph 2 mph 95 % 0 in
01:02 49.5 °F 48 °F 30.1 in Calm   3 mph 95 % 0 in
01:12 49.6 °F 48 °F 30.1 in Calm   3 mph 94 % 0 in
01:17 49.6 °F 48 °F 30 in Calm   3 mph 94 % 0 in
01:22 49.6 °F 48 °F 30 in WSW 1 mph 3 mph 94 % 0 in
01:32 49.6 °F 48.2 °F 30.1 in WSW 1 mph 3 mph 95 % 0 in
01:37 49.5 °F 48 °F 30.1 in SW 1 mph 3 mph 95 % 0 in
01:42 49.5 °F 48 °F 30.1 in SW 3 mph 3 mph 95 % 0 in
01:52 49.5 °F 48 °F 30.1 in WSW 1 mph 4 mph 95 % 0 in
01:57 49.5 °F 48 °F 30.1 in WSW 2 mph 4 mph 95 % 0 in
02:02 49.5 °F 48 °F 30.1 in West 3 mph 4 mph 95 % 0 in
02:07 49.5 °F 48 °F 30.1 in SW 2 mph 4 mph 95 % 0 in
02:12 49.5 °F 48 °F 30.1 in SSW 2 mph 4 mph 95 % 0 in
02:17 49.3 °F 47.8 °F 30.1 in SW 2 mph 4 mph 95 % 0 in
02:22 49.3 °F 47.8 °F 30.1 in South 2 mph 4 mph 95 % 0 in
02:32 49.3 °F 48.2 °F 30.1 in WSW 3 mph 6 mph 96 % 0 in
02:42 48.9 °F 47.5 °F 30.1 in SW 4 mph 4 mph 95 % 0 in
02:47 48.9 °F 47.8 °F 30.1 in West 3 mph 6 mph 96 % 0 in
02:52 48.7 °F 47.7 °F 30.1 in WSW 3 mph 6 mph 96 % 0 in
02:57 48.7 °F 47.7 °F 30.1 in SW 3 mph 6 mph 96 % 0 in
03:02 48.7 °F 47.7 °F 30.1 in WSW 3 mph 6 mph 96 % 0 in
03:07 48.7 °F 47.7 °F 30.1 in SW 1 mph 4 mph 96 % 0 in
03:12 48.7 °F 47.7 °F 30.1 in SW 2 mph 4 mph 96 % 0 in
03:17 48.6 °F 47.5 °F 30.1 in Calm   3 mph 96 % 0 in
03:22 48.6 °F 47.5 °F 30.1 in Calm   3 mph 96 % 0 in
03:32 48.6 °F 47.5 °F 30.1 in SW 2 mph 3 mph 96 % 0 in
03:37 48.6 °F 47.5 °F 30.1 in SW 2 mph 2 mph 96 % 0 in
03:42 48.6 °F 47.5 °F 30.1 in Calm   2 mph 96 % 0 in
03:47 48.4 °F 47.3 °F 30.1 in SW 1 mph 2 mph 96 % 0 in
03:52 48.4 °F 47.3 °F 30.1 in WSW 1 mph 2 mph 96 % 0 in
04:02 48.2 °F 47.1 °F 30.1 in SW 3 mph 3 mph 96 % 0 in
04:07 48 °F 46.9 °F 30.1 in SW 2 mph 3 mph 96 % 0 in
04:12 48 °F 46.9 °F 30.1 in SW 3 mph 3 mph 96 % 0 in
04:17 47.8 °F 46.8 °F 30.1 in SW 3 mph 4 mph 96 % 0 in
04:22 47.7 °F 46.6 °F 30.1 in SSW 1 mph 4 mph 96 % 0 in
04:27 47.7 °F 46.6 °F 30.1 in WSW 2 mph 4 mph 96 % 0 in
04:32 47.5 °F 46.4 °F 30.1 in SW 1 mph 4 mph 96 % 0 in
04:37 47.5 °F 46.4 °F 30.1 in SW 2 mph 4 mph 96 % 0 in
04:42 47.3 °F 46.2 °F 30.1 in Calm   4 mph 96 % 0 in
04:47 47.1 °F 46 °F 30.1 in SSW 2 mph 5 mph 96 % 0 in
04:52 47.1 °F 46 °F 30.1 in WSW 4 mph 5 mph 96 % 0 in
04:57 46.9 °F 45.9 °F 30.1 in Calm   5 mph 96 % 0 in
05:02 46.8 °F 45.7 °F 30.1 in Calm   5 mph 96 % 0 in
05:17 46.2 °F 45.1 °F 30.1 in Calm   1 mph 96 % 0 in
05:27 46.2 °F 45.1 °F 30.1 in Calm     96 % 0 in
05:32 46 °F 45 °F 30.1 in Calm     96 % 0 in
05:37 46 °F 45 °F 30.1 in Calm     96 % 0 in
05:42 45.9 °F 44.8 °F 30.1 in Calm     96 % 0 in
05:47 45.9 °F 44.8 °F 30.1 in Calm   2 mph 96 % 0 in
05:52 45.7 °F 44.6 °F 30.1 in Calm   2 mph 96 % 0 in
06:02 45.5 °F 44.4 °F 30.1 in Calm   1 mph 96 % 0 in
06:07 45.5 °F 44.4 °F 30.1 in Calm   1 mph 96 % 0 in
06:12 45.3 °F 44.2 °F 30.1 in Calm   1 mph 96 % 0 in
06:17 45.3 °F 44.2 °F 30.1 in Calm     96 % 0 in
06:22 45.1 °F 44.1 °F 30.1 in Calm     96 % 0 in
06:32 45.1 °F 44.1 °F 30.1 in Calm   1 mph 96 % 0 in
06:37 45.1 °F 44.4 °F 30.1 in Calm     97 % 0 in
06:42 45.1 °F 44.4 °F 30.1 in SSW 2 mph   97 % 0 in
06:47 45 °F 43.9 °F 30.1 in SSW 1 mph 2 mph 96 % 0 in
06:52 45 °F 43.9 °F 30.1 in SW 1 mph 2 mph 96 % 0 in
07:02 44.8 °F 44.1 °F 30.1 in Calm   4 mph 97 % 0 in
07:12 44.4 °F 43.3 °F 30.1 in SW 2 mph 2 mph 96 % 0 in
07:17 44.2 °F 43.2 °F 30.1 in Calm   3 mph 96 % 0 in
07:22 44.2 °F 43.5 °F 30.1 in Calm   3 mph 97 % 0 in
07:32 44.1 °F 43.3 °F 30.1 in SW 1 mph 3 mph 97 % 0 in
07:42 44.1 °F 43.3 °F 30.1 in Calm   3 mph 97 % 0 in
07:52 43.9 °F 43.2 °F 30.1 in SW 1 mph 3 mph 97 % 0 in
07:57 44.1 °F 43.3 °F 30.1 in Calm   3 mph 97 % 0 in
08:02 44.1 °F 43.3 °F 30.1 in SW 1 mph 3 mph 97 % 0 in
08:12 44.1 °F 43.3 °F 30.1 in SSW 2 mph 2 mph 97 % 0 in
08:17 44.2 °F 43.5 °F 30.1 in SW 1 mph 3 mph 97 % 0 in
08:22 44.1 °F 43.3 °F 30.1 in WSW 3 mph 3 mph 97 % 0 in
08:32 44.2 °F 43.5 °F 30.1 in SSE 1 mph 4 mph 97 % 0 in
08:42 44.1 °F 43.3 °F 30.1 in SSW 2 mph 5 mph 97 % 0 in
08:52 44.1 °F 43.3 °F 30.1 in WSW 2 mph 5 mph 97 % 0 in
08:57 43.9 °F 43.2 °F 30.1 in WSW 2 mph 5 mph 97 % 0 in
09:02 43.9 °F 43.2 °F 30.1 in SW 1 mph 5 mph 97 % 0 in
09:12 44.1 °F 43.3 °F 30.1 in Calm   4 mph 97 % 0 in
09:17 44.2 °F 43.5 °F 30.1 in SSW 1 mph 4 mph 97 % 0 in
09:22 44.4 °F 43.7 °F 30.1 in Calm   4 mph 97 % 0 in
09:32 44.2 °F 43.5 °F 30.1 in Calm   3 mph 97 % 0 in
09:37 45 °F 44.2 °F 30.1 in Calm   3 mph 97 % 0 in
09:42 45 °F 44.2 °F 30.1 in Calm   3 mph 97 % 0 in
09:47 45 °F 44.2 °F 30.1 in Calm   1 mph 97 % 0 in
09:52 45 °F 44.2 °F 30.1 in Calm   1 mph 97 % 0 in
10:02 45.7 °F 45 °F 30.1 in SSW 1 mph 1 mph 97 % 0 in
10:12 45.9 °F 45.1 °F 30.1 in Calm   1 mph 97 % 0 in
10:17 45.9 °F 45.1 °F 30.1 in Calm   2 mph 97 % 0 in
10:22 46.6 °F 45.9 °F 30.1 in Calm   2 mph 97 % 0 in
10:32 46.6 °F 45.9 °F 30.1 in Calm   2 mph 97 % 0 in
10:42 46.8 °F 46 °F 30.1 in SW 2 mph 3 mph 97 % 0 in
10:52 47.1 °F 46.4 °F 30.1 in SW 3 mph 4 mph 97 % 0 in
10:57 47.3 °F 46.6 °F 30.1 in SSW 1 mph 4 mph 97 % 0 in
11:02 47.7 °F 46.9 °F 30.1 in SW 1 mph 4 mph 97 % 0 in
11:12 48.4 °F 47.5 °F 30.1 in Calm   3 mph 97 % 0 in
11:17 48.4 °F 47.5 °F 30.1 in SW 3 mph 4 mph 97 % 0 in
11:22 48.6 °F 47.7 °F 30.1 in SW 1 mph 4 mph 97 % 0 in
11:32 48.9 °F 48 °F 30.1 in SW 4 mph 4 mph 97 % 0 in
11:42 49.6 °F 48.7 °F 30.1 in South 1 mph 5 mph 97 % 0 in
11:52 50 °F 49.1 °F 30.1 in SW 4 mph 5 mph 97 % 0 in
12:02 50.2 °F 49.1 °F 30.1 in SW 4 mph 7 mph 96 % 0 in
12:12 51.1 °F 50.2 °F 30.1 in SSE 2 mph 6 mph 97 % 0 in
12:17 51.4 °F 50.5 °F 30.1 in SSW 1 mph 7 mph 97 % 0 in
12:22 51.3 °F 49.8 °F 30.1 in SW 3 mph 7 mph 95 % 0 in
12:27 51.3 °F 50.2 °F 30.1 in South 6 mph 7 mph 96 % 0 in
12:32 51.8 °F 50.7 °F 30.1 in SW 5 mph 7 mph 96 % 0 in
12:42 52.5 °F 51.1 °F 30.1 in SSW 4 mph 7 mph 95 % 0 in
12:47 52.3 °F 50.7 °F 30.1 in SW 5 mph 8 mph 94 % 0 in
12:52 52.7 °F 50.7 °F 30.1 in SW 4 mph 8 mph 93 % 0 in
13:02 53.8 °F 50.9 °F 30.1 in SSW 2 mph 8 mph 90 % 0 in
13:12 54.3 °F 50.9 °F 30.1 in WSW 4 mph 10 mph 88 % 0 in
13:17 54.9 °F 51.4 °F 30.1 in SSW 2 mph 10 mph 88 % 0 in
13:22 55.2 °F 51.1 °F 30.1 in South 4 mph 10 mph 86 % 0 in
13:32 55.8 °F 51.1 °F 30.1 in SW 6 mph 9 mph 84 % 0 in
13:42 55.9 °F 51.4 °F 30.1 in South 7 mph 9 mph 85 % 0 in
13:52 55.6 °F 50.9 °F 30.1 in SSW 4 mph 11 mph 84 % 0 in
13:57 55.6 °F 50.9 °F 30.1 in South 3 mph 11 mph 84 % 0 in
14:02 55.9 °F 50.9 °F 30.1 in South 6 mph 11 mph 83 % 0 in
14:12 56.7 °F 52.2 °F 30.1 in SW 7 mph 12 mph 85 % 0 in
14:17 56.7 °F 50.9 °F 30.1 in SW 5 mph 12 mph 81 % 0 in
14:27 56.8 °F 51.4 °F 30.1 in WSW 8 mph 11 mph 82 % 0 in
14:32 57 °F 51.3 °F 30.1 in SW 6 mph 11 mph 81 % 0 in
14:37 57 °F 51.6 °F 30.1 in SSW 5 mph 12 mph 82 % 0 in
14:42 57.9 °F 52.2 °F 30.1 in WSW 8 mph 12 mph 81 % 0 in
14:47 58.3 °F 52.2 °F 30.1 in SSW 7 mph 12 mph 80 % 0 in
14:52 58.3 °F 51.4 °F 30.1 in SSW 5 mph 12 mph 78 % 0 in
14:57 58.5 °F 52 °F 30.1 in WNW 3 mph 12 mph 79 % 0 in
15:02 58.5 °F 51.3 °F 30.1 in South 4 mph 12 mph 77 % 0 in
15:07 58.8 °F 51.6 °F 30.1 in WSW 7 mph 13 mph 77 % 0 in
15:12 58.8 °F 52.3 °F 30.1 in West 2 mph 13 mph 79 % 0 in
15:17 59.4 °F 52.2 °F 30.1 in SW 9 mph 13 mph 77 % 0 in
15:22 59.5 °F 50.9 °F 30.1 in WSW 5 mph 11 mph 73 % 0 in
15:27 59.5 °F 52 °F 30.1 in SW 5 mph 12 mph 76 % 0 in
15:32 59.7 °F 51.4 °F 30.1 in WSW 6 mph 12 mph 74 % 0 in
15:42 59.7 °F 51.1 °F 30.1 in West 7 mph 12 mph 73 % 0 in
15:47 59.5 °F 51.3 °F 30.1 in West 6 mph 12 mph 74 % 0 in
15:52 59.4 °F 50.7 °F 30.1 in SW 3 mph 12 mph 73 % 0 in
16:02 59.7 °F 49.5 °F 30.1 in West 2 mph 12 mph 69 % 0 in
16:07 60.3 °F 49.3 °F 30.1 in West 10 mph 11 mph 67 % 0 in
16:12 60.3 °F 49.3 °F 30.1 in West 4 mph 11 mph 67 % 0 in
16:17 60.8 °F 49.5 °F 30.1 in West 4 mph 11 mph 66 % 0 in
16:22 60.8 °F 48.2 °F 30.1 in WNW 8 mph 11 mph 63 % 0 in
16:32 59.7 °F 48.4 °F 30.1 in WSW 5 mph 10 mph 66 % 0 in
16:37 60.1 °F 49.1 °F 30.1 in WNW 6 mph 11 mph 67 % 0 in
16:42 60.4 °F 49.8 °F 30.1 in West 9 mph 11 mph 68 % 0 in
16:52 60.4 °F 49.5 °F 30.1 in WNW 8 mph 12 mph 67 % 0 in
17:02 59.5 °F 48.6 °F 30.1 in WNW 5 mph 12 mph 67 % 0 in
17:07 59.5 °F 48.6 °F 30.1 in WNW 7 mph 12 mph 67 % 0 in
17:12 60.3 °F 50 °F 30.1 in West 4 mph 12 mph 69 % 0 in
17:17 60.4 °F 49.1 °F 30.1 in SW 5 mph 11 mph 66 % 0 in
17:22 60.4 °F 48.2 °F 30.1 in West 6 mph 9 mph 64 % 0 in
17:27 60.6 °F 48.4 °F 30.1 in West 2 mph 9 mph 64 % 0 in
17:32 60.6 °F 48.4 °F 30.1 in NW 2 mph 9 mph 64 % 0 in
17:37 61.3 °F 49.1 °F 30.1 in Calm   9 mph 64 % 0 in
17:42 61.7 °F 47.3 °F 30.1 in West 7 mph 7 mph 59 % 0 in
17:47 61.3 °F 47.8 °F 30.1 in West 5 mph 8 mph 61 % 0 in
17:52 61 °F 47.5 °F 30.1 in SW 2 mph 8 mph 61 % 0 in
17:57 60.8 °F 47.7 °F 30.1 in WNW 6 mph 8 mph 62 % 0 in
18:02 60.8 °F 47.3 °F 30.1 in West 5 mph 8 mph 61 % 0 in
18:07 61 °F 46.9 °F 30.1 in NW 1 mph 8 mph 60 % 0 in
18:12 61.2 °F 47.1 °F 30.1 in WNW 3 mph 8 mph 60 % 0 in
18:17 61.3 °F 46.9 °F 30.1 in West 3 mph 8 mph 59 % 0 in
18:22 61.3 °F 46.4 °F 30.1 in WNW 2 mph 7 mph 58 % 0 in
18:27 61.5 °F 47.1 °F 30.1 in NW 2 mph 7 mph 59 % 0 in
18:32 61.3 °F 47.3 °F 30.1 in WNW 3 mph 8 mph 60 % 0 in
18:37 61.2 °F 47.7 °F 30.1 in WNW 2 mph 9 mph 61 % 0 in
18:42 61 °F 47.5 °F 30.1 in WNW 2 mph 9 mph 61 % 0 in
18:52 60.6 °F 47.5 °F 30.1 in NW 2 mph 8 mph 62 % 0 in
18:57 61 °F 47.8 °F 30.1 in West 1 mph 6 mph 62 % 0 in
19:02 60.8 °F 48.2 °F 30.1 in WNW 2 mph 6 mph 63 % 0 in
19:12 59.5 °F 48.2 °F 30.1 in WNW 1 mph 3 mph 66 % 0 in
19:17 59 °F 48.4 °F 30.1 in WNW 2 mph 3 mph 68 % 0 in
19:22 58.5 °F 48.4 °F 30.1 in West 2 mph 3 mph 69 % 0 in
19:27 58.1 °F 48.4 °F 30.1 in WNW 2 mph 3 mph 70 % 0 in
19:32 57.7 °F 48 °F 30.1 in WNW 2 mph 3 mph 70 % 0 in
19:37 57.2 °F 47.5 °F 30.1 in WNW 3 mph 4 mph 70 % 0 in
19:42 56.8 °F 47.5 °F 30.1 in West 2 mph 4 mph 71 % 0 in
19:47 56.7 °F 47.7 °F 30.1 in Calm   3 mph 72 % 0 in
19:52 56.1 °F 48 °F 30.1 in Calm   3 mph 74 % 0 in
20:02 55 °F 48.4 °F 30.1 in West 1 mph 2 mph 78 % 0 in
20:07 54.7 °F 48.4 °F 30.1 in WNW 1 mph 2 mph 79 % 0 in
20:12 54.3 °F 48.2 °F 30.1 in WNW 1 mph 2 mph 80 % 0 in
20:17 54.1 °F 48.4 °F 30.1 in Calm   2 mph 81 % 0 in
20:22 54 °F 48.6 °F 30.1 in WNW 3 mph 3 mph 82 % 0 in
20:27 53.8 °F 48.4 °F 30.1 in Calm   3 mph 82 % 0 in
20:32 54 °F 48.2 °F 30.1 in Calm   3 mph 81 % 0 in
20:42 54.3 °F 48.2 °F 30.1 in NW 2 mph 4 mph 80 % 0 in
20:52 54.3 °F 48.2 °F 30.1 in NW 2 mph 4 mph 80 % 0 in
21:02 54.3 °F 48.2 °F 30.1 in West 1 mph 4 mph 80 % 0 in
21:07 54.3 °F 48.2 °F 30.1 in WNW 1 mph 3 mph 80 % 0 in
21:12 54.3 °F 48.2 °F 30.1 in Calm   3 mph 80 % 0 in
21:27 54.5 °F 48.7 °F 30.1 in NW 1 mph 2 mph 81 % 0 in
21:32 54.3 °F 48.6 °F 30.1 in West 1 mph 2 mph 81 % 0 in
21:42 54.1 °F 48 °F 30.1 in NW 1 mph 3 mph 80 % 0 in
21:52 54 °F 48 °F 30.1 in NW 2 mph 3 mph 80 % 0 in
21:57 53.8 °F 47.8 °F 30.1 in Calm   3 mph 80 % 0 in
22:02 53.6 °F 47.7 °F 30.1 in NNW 1 mph 3 mph 80 % 0 in
22:07 53.2 °F 47.3 °F 30.1 in Calm   4 mph 80 % 0 in
22:12 53.2 °F 47.3 °F 30.1 in NW 1 mph 4 mph 80 % 0 in
22:17 53.1 °F 47.1 °F 30.1 in Calm   3 mph 80 % 0 in
22:27 52.9 °F 47.3 °F 30.1 in NW 1 mph 3 mph 81 % 0 in
22:32 52.5 °F 46.9 °F 30.1 in NW 2 mph 3 mph 81 % 0 in
22:37 52.5 °F 47.1 °F 30.1 in North 1 mph 3 mph 82 % 0 in
22:42 52.2 °F 47.1 °F 30.1 in Calm   3 mph 83 % 0 in
22:57 51.1 °F 46.8 °F 30.2 in NNW 1 mph 2 mph 85 % 0 in
23:02 51.1 °F 47.1 °F 30.2 in Calm   2 mph 86 % 0 in
23:12 51.1 °F 46.8 °F 30.2 in Calm   3 mph 85 % 0 in
23:17 51.1 °F 47.1 °F 30.2 in NNW 2 mph 3 mph 86 % 0 in
23:22 50.7 °F 46.8 °F 30.2 in North 1 mph 3 mph 86 % 0 in
23:27 50.5 °F 46.8 °F 30.2 in NNE 2 mph 3 mph 87 % 0 in
23:32 50.4 °F 46.6 °F 30.2 in NNW 1 mph 3 mph 87 % 0 in
23:37 50.4 °F 46.6 °F 30.2 in Calm   3 mph 87 % 0 in
23:42 50.4 °F 46.6 °F 30.2 in Calm   3 mph 87 % 0 in
23:47 50.5 °F 46.6 °F 30.2 in Calm   2 mph 86 % 0 in
23:52 50.5 °F 46.6 °F 30.2 in Calm   1 mph 86 % 0 in
23:57 50.7 °F 46.8 °F 30.2 in Calm   1 mph 86 % 0 in
Meteo18
Compliments of Weather Underground - 4 mb

Script developed by  Jim McMurry - jmcmurry@mwt.net Adapted for the template by  Wim van der Kuil - Leuven-Template.eu

You find our weather info also at:

European Weather Network

Weather Underground

Equipment we use:

Weather-station
Davis Vue

Weather-program
Meteohub

Weather-server
Raspberry PI 2 B+

Provider
1 and 1

Davis Vue

Meteohub

Raspberry PI 2 B+

1 and 1